createdAt,value
2022-11-21T00:01:20.389Z,100.00
2022-11-21T00:03:48.667Z,100.00
2022-11-21T00:06:16.901Z,100.00
2022-11-21T00:08:46.765Z,100.00
2022-11-21T00:11:15.096Z,100.00
2022-11-21T00:13:43.725Z,100.00
2022-11-21T00:16:13.226Z,100.00
2022-11-21T00:18:41.776Z,100.00
2022-11-21T00:21:13.375Z,100.00
2022-11-21T00:23:41.292Z,100.00
2022-11-21T00:26:11.936Z,100.00
2022-11-21T00:28:40.067Z,100.00
2022-11-21T00:31:08.290Z,100.00
2022-11-21T00:33:37.053Z,100.00
2022-11-21T00:36:09.163Z,100.00
2022-11-21T00:38:37.619Z,100.00
2022-11-21T00:41:05.793Z,100.00
2022-11-21T00:43:35.711Z,100.00
2022-11-21T00:46:04.462Z,100.00
2022-11-21T00:48:33.523Z,100.00
2022-11-21T00:51:02.030Z,100.00
2022-11-21T00:53:30.946Z,100.00
2022-11-21T00:55:59.127Z,100.00
2022-11-21T00:58:27.383Z,100.00
2022-11-21T01:01:03.889Z,100.00
2022-11-21T01:03:33.721Z,100.00
2022-11-21T01:06:03.195Z,100.00
2022-11-21T01:08:31.119Z,100.00
2022-11-21T01:11:03.683Z,100.00
2022-11-21T01:13:31.590Z,100.00
2022-11-21T01:16:05.897Z,100.00
2022-11-21T01:18:34.307Z,100.00
2022-11-21T01:21:02.479Z,100.00
2022-11-21T01:23:30.711Z,100.00
2022-11-21T01:26:02.552Z,100.00
2022-11-21T01:28:30.374Z,100.00
2022-11-21T01:31:06.254Z,100.00
2022-11-21T01:33:34.781Z,100.00
2022-11-21T01:36:11.243Z,100.00
2022-11-21T01:38:39.354Z,100.00
2022-11-21T01:41:07.280Z,100.00
2022-11-21T01:43:35.269Z,100.00
2022-11-21T01:46:11.814Z,100.00
2022-11-21T01:48:45.731Z,100.00
2022-11-21T01:51:21.485Z,100.00
2022-11-21T01:53:55.062Z,100.00
2022-11-21T01:56:23.843Z,100.00
2022-11-21T01:58:56.930Z,100.00
2022-11-21T02:01:26.189Z,100.00
2022-11-21T02:03:57.950Z,100.00
2022-11-21T02:06:27.060Z,100.00
2022-11-21T02:08:55.080Z,100.00
2022-11-21T02:11:31.682Z,100.00
2022-11-21T02:14:01.083Z,100.00
2022-11-21T02:16:30.843Z,100.00
2022-11-21T02:18:58.817Z,100.00
2022-11-21T02:21:37.541Z,100.00
2022-11-21T02:24:13.632Z,100.00
2022-11-21T02:26:43.496Z,100.00
2022-11-21T02:29:11.401Z,100.00
2022-11-21T02:31:39.423Z,100.00
2022-11-21T02:34:07.675Z,100.00
2022-11-21T02:36:42.418Z,100.00
2022-11-21T02:39:14.898Z,100.00
2022-11-21T02:41:52.865Z,100.00
2022-11-21T02:44:25.795Z,100.00
2022-11-21T02:46:54.371Z,100.00
2022-11-21T02:49:31.475Z,100.00
2022-11-21T02:51:59.376Z,100.00
2022-11-21T02:54:27.493Z,100.00
2022-11-21T02:56:57.581Z,100.00
2022-11-21T02:59:25.468Z,100.00
2022-11-21T03:01:53.369Z,100.00
2022-11-21T03:04:21.165Z,100.00
2022-11-21T03:06:49.092Z,100.00
2022-11-21T03:09:17.040Z,100.00
2022-11-21T03:11:44.853Z,100.00
2022-11-21T03:14:14.217Z,100.00
2022-11-21T03:16:42.018Z,100.00
2022-11-21T03:19:09.825Z,100.00
2022-11-21T03:21:37.984Z,100.00
2022-11-21T03:24:06.688Z,100.00
2022-11-21T03:26:34.504Z,100.00
2022-11-21T03:29:02.689Z,100.00
2022-11-21T03:31:31.925Z,100.00
2022-11-21T03:33:59.744Z,100.00
2022-11-21T03:36:27.853Z,100.00
2022-11-21T03:38:56.542Z,100.00
2022-11-21T03:41:33.467Z,100.00
2022-11-21T03:44:04.216Z,100.00
2022-11-21T03:46:35.332Z,100.00
2022-11-21T03:49:03.881Z,100.00
2022-11-21T03:51:32.007Z,100.00
2022-11-21T03:54:00.391Z,100.00
2022-11-21T03:56:29.048Z,100.00
2022-11-21T03:58:56.890Z,99.89
2022-11-21T04:01:25.861Z,100.00
2022-11-21T04:03:55.428Z,99.73
2022-11-21T04:06:23.845Z,99.56
2022-11-21T04:08:52.020Z,99.89
2022-11-21T04:11:23.492Z,99.14
2022-11-21T04:13:51.559Z,99.58
2022-11-21T04:16:20.047Z,98.79
2022-11-21T04:18:48.392Z,98.65
2022-11-21T04:21:17.607Z,99.06
2022-11-21T04:23:45.581Z,98.69
2022-11-21T04:26:13.488Z,98.23
2022-11-21T04:28:41.285Z,98.32
2022-11-21T04:31:11.416Z,98.17
2022-11-21T04:33:39.982Z,98.10
2022-11-21T04:36:08.390Z,97.86
2022-11-21T04:38:37.803Z,98.31
2022-11-21T04:41:05.908Z,97.70
2022-11-21T04:43:33.943Z,97.74
2022-11-21T04:46:02.104Z,97.96
2022-11-21T04:48:30.110Z,97.90
2022-11-21T04:50:57.945Z,97.92
2022-11-21T04:53:25.884Z,97.38
2022-11-21T04:55:55.199Z,97.91
2022-11-21T04:58:23.034Z,97.62
2022-11-21T05:00:50.976Z,98.00
2022-11-21T05:03:18.977Z,98.15
2022-11-21T05:05:47.304Z,97.70
2022-11-21T05:08:15.208Z,98.03
2022-11-21T05:11:02.394Z,97.94
2022-11-21T05:13:31.752Z,97.82
2022-11-21T05:15:59.779Z,97.91
2022-11-21T05:18:27.713Z,98.20
2022-11-21T05:20:55.674Z,98.42
2022-11-21T05:23:23.569Z,98.19
2022-11-21T05:25:51.398Z,98.69
2022-11-21T05:28:19.268Z,98.53
2022-11-21T05:30:48.568Z,98.58
2022-11-21T05:33:16.384Z,98.72
2022-11-21T05:35:44.358Z,98.82
2022-11-21T05:38:12.623Z,98.86
2022-11-21T05:40:40.582Z,99.02
2022-11-21T05:43:26.025Z,98.71
2022-11-21T05:45:55.362Z,98.94
2022-11-21T05:48:23.177Z,99.16
2022-11-21T05:50:51.248Z,98.90
2022-11-21T05:53:19.234Z,99.40
2022-11-21T05:55:47.397Z,99.50
2022-11-21T05:58:15.851Z,99.16
2022-11-21T06:00:43.816Z,98.97
2022-11-21T06:03:28.149Z,99.30
2022-11-21T06:06:03.932Z,99.36
2022-11-21T06:08:33.987Z,99.35
2022-11-21T06:11:01.956Z,99.62
2022-11-21T06:13:30.283Z,99.86
2022-11-21T06:16:01.700Z,99.51
2022-11-21T06:18:33.470Z,99.33
2022-11-21T06:21:05.795Z,99.89
2022-11-21T06:23:33.820Z,100.00
2022-11-21T06:26:03.928Z,100.00
2022-11-21T06:28:33.870Z,99.79
2022-11-21T06:31:04.342Z,100.00
2022-11-21T06:33:33.805Z,100.00
2022-11-21T06:36:03.489Z,100.00
2022-11-21T06:38:31.283Z,100.00
2022-11-21T06:40:59.561Z,100.00
2022-11-21T06:43:28.600Z,100.00
2022-11-21T06:45:56.983Z,100.00
2022-11-21T06:48:24.832Z,100.00
2022-11-21T06:50:54.179Z,100.00
2022-11-21T06:53:21.990Z,100.00
2022-11-21T06:55:49.819Z,100.00
2022-11-21T06:58:17.844Z,100.00
2022-11-21T07:00:46.132Z,100.00
2022-11-21T07:03:13.924Z,100.00
2022-11-21T07:05:41.921Z,100.00
2022-11-21T07:08:13.449Z,100.00
2022-11-21T07:10:57.306Z,100.00
2022-11-21T07:13:30.138Z,100.00
2022-11-21T07:16:03.157Z,100.00
2022-11-21T07:18:31.336Z,100.00
2022-11-21T07:21:00.216Z,100.00
2022-11-21T07:23:30.238Z,100.00
2022-11-21T07:26:01.026Z,100.00
2022-11-21T07:28:29.555Z,100.00
2022-11-21T07:30:57.611Z,100.00
2022-11-21T07:33:25.665Z,100.00
2022-11-21T07:35:53.448Z,100.00
2022-11-21T07:38:21.288Z,100.00
2022-11-21T07:40:50.618Z,100.00
2022-11-21T07:43:19.173Z,100.00
2022-11-21T07:45:47.031Z,100.00
2022-11-21T07:48:15.219Z,100.00
2022-11-21T07:50:43.007Z,100.00
2022-11-21T07:53:13.369Z,100.00
2022-11-21T07:55:41.345Z,100.00
2022-11-21T07:58:12.582Z,100.00
2022-11-21T08:00:43.556Z,100.00
2022-11-21T08:03:13.019Z,100.00
2022-11-21T08:05:42.186Z,100.00
2022-11-21T08:08:11.040Z,100.00
2022-11-21T08:10:39.805Z,100.00
2022-11-21T08:13:07.961Z,100.00
2022-11-21T08:15:37.348Z,100.00
2022-11-21T08:18:09.403Z,100.00
2022-11-21T08:20:37.405Z,100.00
2022-11-21T08:23:06.241Z,100.00
2022-11-21T08:25:34.785Z,100.00
2022-11-21T08:28:03.740Z,100.00
2022-11-21T08:30:32.071Z,100.00
2022-11-21T08:33:02.014Z,100.00
2022-11-21T08:35:30.352Z,100.00
2022-11-21T08:37:58.813Z,100.00
2022-11-21T08:40:27.755Z,100.00
2022-11-21T08:42:58.833Z,100.00
2022-11-21T08:45:27.112Z,100.00
2022-11-21T08:47:55.287Z,100.00
2022-11-21T08:50:25.139Z,100.00
2022-11-21T08:52:53.368Z,100.00
2022-11-21T08:55:23.085Z,100.00
2022-11-21T08:57:51.161Z,100.00
2022-11-21T09:00:19.347Z,100.00
2022-11-21T09:02:47.141Z,100.00
2022-11-21T09:05:15.132Z,100.00
2022-11-21T09:07:44.592Z,100.00
2022-11-21T09:10:12.807Z,100.00
2022-11-21T09:12:40.790Z,100.00
2022-11-21T09:15:28.344Z,100.00
2022-11-21T09:18:07.247Z,100.00
2022-11-21T09:20:40.547Z,100.00
2022-11-21T09:23:11.675Z,100.00
2022-11-21T09:25:40.153Z,100.00
2022-11-21T09:28:09.386Z,100.00
2022-11-21T09:30:38.030Z,100.00
2022-11-21T09:33:08.013Z,100.00
2022-11-21T09:35:35.834Z,100.00
2022-11-21T09:38:03.664Z,100.00
2022-11-21T09:40:35.866Z,100.00
2022-11-21T09:43:27.469Z,100.00
2022-11-21T09:46:02.737Z,100.00
2022-11-21T09:48:36.538Z,100.00
2022-11-21T09:51:08.708Z,100.00
2022-11-21T09:53:39.242Z,100.00
2022-11-21T09:56:14.101Z,100.00
2022-11-21T09:58:45.530Z,100.00
2022-11-21T10:01:14.344Z,100.00
2022-11-21T10:03:44.533Z,100.00
2022-11-21T10:06:20.621Z,100.00
2022-11-21T10:08:57.015Z,100.00
2022-11-21T10:12:01.777Z,100.00
2022-11-21T10:14:44.012Z,100.00
2022-11-21T10:17:23.978Z,100.00
2022-11-21T10:20:10.536Z,100.00
2022-11-21T10:22:51.553Z,100.00
2022-11-21T10:25:27.275Z,100.00
2022-11-21T10:28:03.185Z,100.00
2022-11-21T10:30:30.996Z,100.00
2022-11-21T10:33:04.669Z,100.00
2022-11-21T10:35:40.842Z,100.00
2022-11-21T10:38:20.921Z,100.00
2022-11-21T10:40:52.551Z,100.00
2022-11-21T10:43:50.354Z,100.00
2022-11-21T10:46:18.425Z,100.00
2022-11-21T10:48:54.402Z,100.00
2022-11-21T10:51:36.772Z,100.00
2022-11-21T10:54:24.296Z,100.00
2022-11-21T10:56:54.173Z,100.00
2022-11-21T10:59:30.974Z,100.00
2022-11-21T11:02:01.303Z,100.00
2022-11-21T11:04:37.632Z,100.00
2022-11-21T11:07:24.085Z,100.00
2022-11-21T11:09:53.693Z,100.00
2022-11-21T11:12:47.082Z,100.00
2022-11-21T11:15:22.426Z,100.00
2022-11-21T11:17:56.321Z,100.00
2022-11-21T11:20:34.199Z,100.00
2022-11-21T11:23:02.154Z,100.00
2022-11-21T11:25:36.964Z,100.00
2022-11-21T11:28:09.191Z,100.00
2022-11-21T11:30:39.477Z,100.00
2022-11-21T11:33:29.972Z,100.00
2022-11-21T11:36:07.176Z,100.00
2022-11-21T11:38:35.492Z,100.00
2022-11-21T11:41:14.372Z,100.00
2022-11-21T11:44:10.712Z,100.00
2022-11-21T11:47:07.533Z,100.00
2022-11-21T11:49:55.840Z,100.00
2022-11-21T11:52:28.048Z,100.00
2022-11-21T11:55:01.737Z,100.00
2022-11-21T11:57:32.878Z,100.00
2022-11-21T12:00:10.162Z,100.00
2022-11-21T12:02:48.636Z,100.00
2022-11-21T12:05:21.216Z,100.00
2022-11-21T12:11:08.064Z,100.00
2022-11-21T12:13:38.399Z,100.00
2022-11-21T12:16:13.689Z,100.00
2022-11-21T12:18:52.680Z,100.00
2022-11-21T12:21:21.098Z,100.00
2022-11-21T12:23:51.345Z,100.00
2022-11-21T12:26:32.388Z,100.00
2022-11-21T12:29:13.691Z,100.00
2022-11-21T12:31:55.773Z,100.00
2022-11-21T12:34:38.772Z,100.00
2022-11-21T12:37:19.328Z,100.00
2022-11-21T12:40:05.416Z,100.00
2022-11-21T12:42:52.118Z,100.00
2022-11-21T12:45:28.964Z,100.00
2022-11-21T12:48:30.623Z,100.00
2022-11-21T12:51:33.209Z,100.00
2022-11-21T12:54:29.516Z,100.00
2022-11-21T12:57:04.420Z,100.00
2022-11-21T12:59:37.064Z,100.00
2022-11-21T13:02:20.119Z,100.00
2022-11-21T13:04:51.062Z,100.00
2022-11-21T13:07:22.736Z,100.00
2022-11-21T13:09:54.959Z,100.00
2022-11-21T13:12:32.151Z,100.00
2022-11-21T13:15:07.359Z,100.00
2022-11-21T13:17:44.083Z,100.00
2022-11-21T13:20:22.932Z,100.00
2022-11-21T13:22:57.081Z,100.00
2022-11-21T13:25:41.063Z,100.00
2022-11-21T13:28:34.624Z,100.00
2022-11-21T13:31:04.236Z,100.00
2022-11-21T13:33:53.473Z,100.00
2022-11-21T13:36:44.207Z,100.00
2022-11-21T13:39:37.842Z,100.00
2022-11-21T13:42:33.520Z,100.00
2022-11-21T13:45:43.579Z,100.00
2022-11-21T13:48:24.312Z,100.00
2022-11-21T13:51:30.693Z,100.00
2022-11-21T13:54:33.066Z,100.00
2022-11-21T13:57:15.993Z,100.00
2022-11-21T14:00:04.506Z,100.00
2022-11-21T14:03:02.672Z,100.00
2022-11-21T14:05:54.772Z,100.00
2022-11-21T14:08:25.429Z,100.00
2022-11-21T14:10:55.313Z,100.00
2022-11-21T14:13:29.738Z,100.00
2022-11-21T14:16:21.852Z,100.00
2022-11-21T14:18:49.871Z,100.00
2022-11-21T14:21:21.966Z,100.00
2022-11-21T14:23:50.237Z,100.00
2022-11-21T14:26:21.588Z,100.00
2022-11-21T14:28:52.093Z,100.00
2022-11-21T14:31:20.259Z,100.00
2022-11-21T14:33:48.740Z,100.00
2022-11-21T14:36:19.412Z,100.00
2022-11-21T14:38:57.784Z,100.00
2022-11-21T14:41:32.738Z,100.00
2022-11-21T14:44:20.601Z,100.00
2022-11-21T14:46:49.321Z,100.00
2022-11-21T14:49:29.481Z,100.00
2022-11-21T14:52:19.502Z,100.00
2022-11-21T14:55:22.225Z,100.00
2022-11-21T14:57:43.002Z,100.00
2022-11-21T15:00:43.360Z,100.00
2022-11-21T15:03:05.894Z,100.00
2022-11-21T15:08:59.405Z,100.00
2022-11-21T15:11:13.162Z,100.00
2022-11-21T15:16:32.027Z,100.00
2022-11-21T15:19:00.203Z,100.00
2022-11-21T15:21:28.027Z,100.00
2022-11-21T15:23:56.908Z,100.00
2022-11-21T15:26:31.628Z,100.00
2022-11-21T15:29:01.608Z,100.00
2022-11-21T15:31:30.969Z,100.00
2022-11-21T15:37:04.657Z,100.00
2022-11-21T15:39:33.890Z,100.00
2022-11-21T15:42:37.128Z,100.00
2022-11-21T15:45:23.926Z,100.00
2022-11-21T15:47:53.534Z,100.00
2022-11-21T15:50:24.337Z,100.00
2022-11-21T15:52:53.574Z,100.00
2022-11-21T15:55:23.660Z,100.00
2022-11-21T15:57:51.493Z,100.00
2022-11-21T16:00:19.620Z,100.00
2022-11-21T16:02:47.711Z,100.00
2022-11-21T16:05:17.465Z,100.00
2022-11-21T16:07:45.477Z,100.00
2022-11-21T16:10:19.949Z,100.00
2022-11-21T16:12:50.733Z,100.00
2022-11-21T16:15:18.635Z,100.00
2022-11-21T16:17:47.834Z,100.00
2022-11-21T16:20:17.703Z,100.00
2022-11-21T16:22:47.699Z,100.00
2022-11-21T16:25:15.997Z,100.00
2022-11-21T16:27:43.971Z,100.00
2022-11-21T16:30:12.389Z,100.00
2022-11-21T16:32:40.447Z,100.00
2022-11-21T16:35:08.933Z,100.00
2022-11-21T16:37:38.175Z,100.00
2022-11-21T16:40:07.194Z,100.00
2022-11-21T16:42:35.150Z,100.00
2022-11-21T16:45:03.019Z,100.00
2022-11-21T16:47:30.804Z,100.00
2022-11-21T16:49:58.690Z,100.00
2022-11-21T16:52:26.677Z,100.00
2022-11-21T16:54:55.841Z,100.00
2022-11-21T16:57:23.718Z,100.00
2022-11-21T16:59:51.581Z,100.00
2022-11-21T17:02:19.376Z,100.00
2022-11-21T17:04:47.199Z,100.00
2022-11-21T17:07:15.119Z,100.00
2022-11-21T17:09:42.963Z,100.00
2022-11-21T17:12:12.244Z,100.00
2022-11-21T17:14:40.201Z,100.00
2022-11-21T17:17:08.004Z,100.00
2022-11-21T17:19:35.980Z,100.00
2022-11-21T17:22:03.966Z,100.00
2022-11-21T17:24:31.984Z,100.00
2022-11-21T17:27:02.561Z,100.00
2022-11-21T17:29:31.915Z,100.00
2022-11-21T17:31:59.750Z,100.00
2022-11-21T17:34:32.817Z,100.00
2022-11-21T17:37:02.555Z,100.00
2022-11-21T17:39:30.677Z,100.00
2022-11-21T17:41:59.995Z,100.00
2022-11-21T17:44:28.420Z,100.00
2022-11-21T17:46:59.337Z,100.00
2022-11-21T17:49:30.119Z,100.00
2022-11-21T17:51:58.366Z,100.00
2022-11-21T17:54:26.692Z,100.00
2022-11-21T17:56:56.927Z,100.00
2022-11-21T17:59:25.107Z,100.00
2022-11-21T18:01:53.158Z,100.00
2022-11-21T18:04:22.587Z,100.00
2022-11-21T18:06:50.448Z,100.00
2022-11-21T18:09:18.579Z,100.00
2022-11-21T18:11:46.536Z,100.00
2022-11-21T18:14:14.573Z,100.00
2022-11-21T18:16:47.569Z,100.00
2022-11-21T18:19:17.516Z,100.00
2022-11-21T18:21:46.895Z,100.00
2022-11-21T18:24:17.298Z,100.00
2022-11-21T18:26:45.151Z,100.00
2022-11-21T18:29:35.281Z,100.00
2022-11-21T18:32:01.448Z,100.00
2022-11-21T18:34:29.551Z,100.00
2022-11-21T18:36:58.801Z,100.00
2022-11-21T18:39:27.107Z,100.00
2022-11-21T18:41:55.161Z,100.00
2022-11-21T18:44:23.018Z,100.00
2022-11-21T18:46:51.067Z,100.00
2022-11-21T18:49:19.098Z,100.00
2022-11-21T18:51:48.313Z,100.00
2022-11-21T18:54:18.063Z,100.00
2022-11-21T18:56:47.326Z,100.00
2022-11-21T18:59:15.619Z,100.00
2022-11-21T19:01:43.617Z,100.00
2022-11-21T19:04:12.924Z,100.00
2022-11-21T19:06:40.751Z,100.00
2022-11-21T19:09:08.648Z,100.00
2022-11-21T19:11:38.095Z,100.00
2022-11-21T19:14:05.879Z,100.00
2022-11-21T19:16:35.115Z,100.00
2022-11-21T19:21:54.867Z,100.00
2022-11-21T19:24:22.922Z,100.00
2022-11-21T19:26:53.286Z,100.00
2022-11-21T19:29:21.371Z,100.00
2022-11-21T19:31:49.343Z,100.00
2022-11-21T19:34:17.888Z,100.00
2022-11-21T19:36:46.987Z,100.00
2022-11-21T19:39:17.197Z,100.00
2022-11-21T19:41:45.012Z,100.00
2022-11-21T19:44:14.354Z,100.00
2022-11-21T19:46:42.372Z,100.00
2022-11-21T19:49:12.751Z,100.00
2022-11-21T19:51:42.548Z,100.00
2022-11-21T19:54:13.067Z,100.00
2022-11-21T19:56:41.133Z,100.00
2022-11-21T19:59:12.199Z,100.00
2022-11-21T20:01:41.747Z,100.00
2022-11-21T20:04:10.083Z,100.00
2022-11-21T20:06:41.179Z,100.00
2022-11-21T20:09:11.008Z,100.00
2022-11-21T20:11:40.704Z,100.00
2022-11-21T20:14:09.141Z,100.00
2022-11-21T20:16:38.592Z,100.00
2022-11-21T20:19:11.049Z,100.00
2022-11-21T20:21:39.829Z,100.00
2022-11-21T20:24:08.600Z,100.00
2022-11-21T20:26:37.495Z,100.00
2022-11-21T20:29:06.903Z,100.00
2022-11-21T20:31:37.059Z,100.00
2022-11-21T20:34:08.761Z,100.00
2022-11-21T20:36:37.764Z,100.00
2022-11-21T20:39:07.948Z,100.00
2022-11-21T20:41:37.573Z,100.00
2022-11-21T20:46:55.431Z,100.00
2022-11-21T20:49:24.677Z,100.00
2022-11-21T20:54:40.614Z,100.00
2022-11-21T20:57:14.464Z,100.00
2022-11-21T20:59:43.453Z,100.00
2022-11-21T21:02:14.054Z,100.00
2022-11-21T21:04:43.767Z,100.00
2022-11-21T21:07:11.871Z,100.00
2022-11-21T21:09:39.999Z,100.00
2022-11-21T21:12:08.304Z,100.00
2022-11-21T21:14:36.456Z,100.00
2022-11-21T21:17:04.286Z,100.00
2022-11-21T21:19:32.601Z,100.00
2022-11-21T21:22:02.094Z,100.00
2022-11-21T21:24:29.893Z,100.00
2022-11-21T21:26:57.826Z,100.00
2022-11-21T21:29:25.747Z,100.00
2022-11-21T21:31:53.537Z,100.00
2022-11-21T21:34:22.841Z,100.00
2022-11-21T21:36:51.364Z,100.00
2022-11-21T21:39:20.655Z,100.00
2022-11-21T21:41:48.539Z,100.00
2022-11-21T21:44:17.021Z,100.00
2022-11-21T21:46:45.259Z,100.00
2022-11-21T21:49:13.815Z,100.00
2022-11-21T21:51:41.773Z,100.00
2022-11-21T21:54:17.808Z,100.00
2022-11-21T21:56:47.687Z,100.00
2022-11-21T21:59:18.013Z,100.00
2022-11-21T22:01:46.181Z,100.00
2022-11-21T22:04:14.511Z,100.00
2022-11-21T22:06:42.383Z,100.00
2022-11-21T22:09:10.435Z,100.00
2022-11-21T22:11:40.241Z,100.00
2022-11-21T22:14:13.370Z,100.00
2022-11-21T22:16:42.117Z,100.00
2022-11-21T22:19:10.475Z,100.00
2022-11-21T22:21:39.173Z,100.00
2022-11-21T22:24:28.717Z,100.00
2022-11-21T22:26:56.787Z,100.00
2022-11-21T22:29:26.169Z,100.00
2022-11-21T22:31:53.998Z,100.00
2022-11-21T22:34:22.132Z,100.00
2022-11-21T22:36:50.095Z,100.00
2022-11-21T22:39:18.105Z,100.00
2022-11-21T22:41:46.146Z,100.00
2022-11-21T22:44:14.322Z,100.00
2022-11-21T22:46:43.497Z,100.00
2022-11-21T22:49:11.411Z,100.00
2022-11-21T22:51:39.408Z,100.00
2022-11-21T22:54:07.324Z,100.00
2022-11-21T22:56:35.241Z,100.00
2022-11-21T22:59:03.130Z,100.00
2022-11-21T23:01:31.005Z,100.00
2022-11-21T23:04:00.415Z,100.00
2022-11-21T23:06:28.773Z,100.00
2022-11-21T23:08:57.994Z,100.00
2022-11-21T23:11:28.251Z,100.00
2022-11-21T23:13:57.058Z,100.00
2022-11-21T23:16:25.312Z,100.00
2022-11-21T23:18:54.007Z,100.00
2022-11-21T23:21:23.853Z,100.00
2022-11-21T23:23:51.662Z,100.00
2022-11-21T23:26:20.337Z,100.00
2022-11-21T23:28:48.491Z,100.00
2022-11-21T23:31:16.380Z,100.00
2022-11-21T23:33:44.404Z,100.00
2022-11-21T23:36:12.296Z,100.00
2022-11-21T23:38:41.606Z,100.00
2022-11-21T23:41:09.516Z,100.00
2022-11-21T23:43:37.697Z,100.00
2022-11-21T23:46:05.546Z,100.00
2022-11-21T23:48:33.611Z,100.00
2022-11-21T23:51:01.546Z,100.00
2022-11-21T23:53:29.415Z,100.00
2022-11-21T23:55:58.850Z,100.00
2022-11-21T23:58:26.743Z,100.00
